createdAt,value
2018-02-21T00:01:19.751Z,44.22
2018-02-21T00:03:47.192Z,41.75
2018-02-21T00:06:15.403Z,42.35
2018-02-21T00:08:42.863Z,41.70
2018-02-21T00:11:10.308Z,41.15
2018-02-21T00:13:37.873Z,42.75
2018-02-21T00:16:05.964Z,42.10
2018-02-21T00:18:33.411Z,39.42
2018-02-21T00:21:00.865Z,41.15
2018-02-21T00:23:28.326Z,40.05
2018-02-21T00:25:55.776Z,39.75
2018-02-21T00:28:23.227Z,35.72
2018-02-21T00:30:50.667Z,38.60
2018-02-21T00:33:18.116Z,41.10
2018-02-21T00:35:46.328Z,37.47
2018-02-21T00:38:13.772Z,36.20
2018-02-21T00:40:41.212Z,35.88
2018-02-21T00:43:08.668Z,36.95
2018-02-21T00:45:36.127Z,35.05
2018-02-21T00:48:03.572Z,35.63
2018-02-21T00:50:31.012Z,33.15
2018-02-21T00:52:58.465Z,32.90
2018-02-21T00:55:25.911Z,33.80
2018-02-21T00:57:53.368Z,32.58
2018-02-21T01:00:20.808Z,31.77
2018-02-21T01:02:49.028Z,30.70
2018-02-21T01:05:17.224Z,32.70
2018-02-21T01:07:45.445Z,31.92
2018-02-21T01:10:12.905Z,32.20
2018-02-21T01:12:41.115Z,33.40
2018-02-21T01:15:08.568Z,34.00
2018-02-21T01:17:36.792Z,34.45
2018-02-21T01:20:04.231Z,31.48
2018-02-21T01:22:31.696Z,31.92
2018-02-21T01:24:59.144Z,35.20
2018-02-21T01:27:26.588Z,36.40
2018-02-21T01:29:54.797Z,34.90
2018-02-21T01:32:23.024Z,36.58
2018-02-21T01:34:50.476Z,34.67
2018-02-21T01:37:18.687Z,34.17
2018-02-21T01:39:46.144Z,33.15
2018-02-21T01:42:13.596Z,35.75
2018-02-21T01:44:41.032Z,37.42
2018-02-21T01:47:08.484Z,38.03
2018-02-21T01:49:35.919Z,36.23
2018-02-21T01:52:03.380Z,35.50
2018-02-21T01:54:30.820Z,37.22
2018-02-21T01:56:59.100Z,37.80
2018-02-21T01:59:26.544Z,35.55
2018-02-21T02:01:53.994Z,33.60
2018-02-21T02:04:22.209Z,31.73
2018-02-21T02:06:50.432Z,32.15
2018-02-21T02:09:17.876Z,31.23
2018-02-21T02:11:46.087Z,32.70
2018-02-21T02:14:14.308Z,32.75
2018-02-21T02:16:41.752Z,34.80
2018-02-21T02:19:10.000Z,33.10
2018-02-21T02:21:37.435Z,33.33
2018-02-21T02:24:05.661Z,35.92
2018-02-21T02:26:33.108Z,36.10
2018-02-21T02:29:01.315Z,34.00
2018-02-21T02:31:29.519Z,35.58
2018-02-21T02:33:56.961Z,34.35
2018-02-21T02:36:24.400Z,35.65
2018-02-21T02:39:03.788Z,33.60
2018-02-21T02:41:32.002Z,35.38
2018-02-21T02:43:59.459Z,36.17
2018-02-21T02:46:26.888Z,37.38
2018-02-21T02:48:55.116Z,37.75
2018-02-21T02:51:22.559Z,38.72
2018-02-21T02:53:50.003Z,38.67
2018-02-21T02:56:17.434Z,40.15
2018-02-21T02:58:45.647Z,37.60
2018-02-21T03:01:13.852Z,39.47
2018-02-21T03:03:41.312Z,39.53
2018-02-21T03:06:09.524Z,40.15
2018-02-21T03:08:37.730Z,38.80
2018-02-21T03:11:05.175Z,39.17
2018-02-21T03:13:32.615Z,36.42
2018-02-21T03:16:00.057Z,38.27
2018-02-21T03:18:28.278Z,38.45
2018-02-21T03:20:55.707Z,36.00
2018-02-21T03:23:23.151Z,40.10
2018-02-21T03:25:50.599Z,41.25
2018-02-21T03:28:18.806Z,38.95
2018-02-21T03:30:46.248Z,39.27
2018-02-21T03:33:13.698Z,37.38
2018-02-21T03:35:41.143Z,37.47
2018-02-21T03:38:09.351Z,38.28
2018-02-21T03:40:36.801Z,38.72
2018-02-21T03:43:04.287Z,38.70
2018-02-21T03:45:32.489Z,39.75
2018-02-21T03:48:00.710Z,39.72
2018-02-21T03:50:28.152Z,39.88
2018-02-21T03:52:55.595Z,41.47
2018-02-21T03:55:23.042Z,37.83
2018-02-21T03:57:51.256Z,41.08
2018-02-21T04:00:18.703Z,41.10
2018-02-21T04:02:46.176Z,41.58
2018-02-21T04:05:13.612Z,41.63
2018-02-21T04:07:41.087Z,40.40
2018-02-21T04:10:08.532Z,40.78
2018-02-21T04:12:36.747Z,41.10
2018-02-21T04:15:04.199Z,40.72
2018-02-21T04:17:31.635Z,40.40
2018-02-21T04:19:59.096Z,40.08
2018-02-21T04:22:26.535Z,40.58
2018-02-21T04:24:53.980Z,40.40
2018-02-21T04:27:21.423Z,41.22
2018-02-21T04:29:48.873Z,39.28
2018-02-21T04:32:16.325Z,39.28
2018-02-21T04:34:43.772Z,38.95
2018-02-21T04:37:11.211Z,42.07
2018-02-21T04:39:38.657Z,40.65
2018-02-21T04:42:06.090Z,41.33
2018-02-21T04:44:34.311Z,40.05
2018-02-21T04:47:01.754Z,41.53
2018-02-21T04:49:29.199Z,41.70
2018-02-21T04:51:56.643Z,39.47
2018-02-21T04:54:42.527Z,42.20
2018-02-21T04:57:29.799Z,43.08
2018-02-21T05:00:07.543Z,42.53
2018-02-21T05:02:34.990Z,44.15
2018-02-21T05:05:02.436Z,42.80
2018-02-21T05:07:29.880Z,41.65
2018-02-21T05:09:57.323Z,40.03
2018-02-21T05:12:24.787Z,40.10
2018-02-21T05:14:52.240Z,41.20
2018-02-21T05:17:19.701Z,38.65
2018-02-21T05:19:47.923Z,37.10
2018-02-21T05:22:15.367Z,37.97
2018-02-21T05:24:42.823Z,37.92
2018-02-21T05:27:10.263Z,37.90
2018-02-21T05:29:37.714Z,37.22
2018-02-21T05:32:05.931Z,34.65
2018-02-21T05:34:33.379Z,35.60
2018-02-21T05:37:00.859Z,36.35
2018-02-21T05:39:28.303Z,37.45
2018-02-21T05:41:55.747Z,36.85
2018-02-21T05:44:23.191Z,37.00
2018-02-21T05:46:50.632Z,36.23
2018-02-21T05:49:18.080Z,35.13
2018-02-21T05:51:46.288Z,37.88
2018-02-21T05:54:14.498Z,37.20
2018-02-21T05:56:41.952Z,36.58
2018-02-21T05:59:09.409Z,38.53
2018-02-21T06:01:36.835Z,38.85
2018-02-21T06:04:05.056Z,36.83
2018-02-21T06:06:32.500Z,36.15
2018-02-21T06:09:00.715Z,37.33
2018-02-21T06:11:28.173Z,37.63
2018-02-21T06:13:55.615Z,37.17
2018-02-21T06:16:23.080Z,36.78
2018-02-21T06:18:50.527Z,35.50
2018-02-21T06:21:18.735Z,37.22
2018-02-21T06:23:46.947Z,38.30
2018-02-21T06:26:14.384Z,38.90
2018-02-21T06:28:41.835Z,39.93
2018-02-21T06:31:09.279Z,40.45
2018-02-21T06:33:37.480Z,40.10
2018-02-21T06:36:04.923Z,40.80
2018-02-21T06:38:32.393Z,39.75
2018-02-21T06:40:59.812Z,40.05
2018-02-21T06:43:28.040Z,36.83
2018-02-21T06:45:55.460Z,40.95
2018-02-21T06:48:22.904Z,38.60
2018-02-21T06:50:50.361Z,39.28
2018-02-21T06:53:17.800Z,40.53
2018-02-21T06:55:51.091Z,41.22
2018-02-21T06:58:18.527Z,42.13
2018-02-21T07:00:46.740Z,43.63
2018-02-21T07:03:14.191Z,42.87
2018-02-21T07:05:41.636Z,42.78
2018-02-21T07:08:09.075Z,45.50
2018-02-21T07:10:37.288Z,46.83
2018-02-21T07:13:04.761Z,40.17
2018-02-21T07:15:32.209Z,41.50
2018-02-21T07:17:59.639Z,40.28
2018-02-21T07:20:27.087Z,42.47
2018-02-21T07:22:55.304Z,42.75
2018-02-21T07:25:22.756Z,42.05
2018-02-21T07:27:50.187Z,44.20
2018-02-21T07:30:17.639Z,42.45
2018-02-21T07:32:45.079Z,41.50
2018-02-21T07:35:12.535Z,44.03
2018-02-21T07:37:39.979Z,45.33
2018-02-21T07:40:08.187Z,44.35
2018-02-21T07:42:35.635Z,45.53
2018-02-21T07:45:03.078Z,44.30
2018-02-21T07:47:30.520Z,44.45
2018-02-21T07:49:57.975Z,43.10
2018-02-21T07:52:25.419Z,45.23
2018-02-21T07:54:52.867Z,45.22
2018-02-21T07:57:20.384Z,45.38
2018-02-21T07:59:48.556Z,44.08
2018-02-21T08:02:16.000Z,44.20
2018-02-21T08:04:43.447Z,42.10
2018-02-21T08:07:10.892Z,43.65
2018-02-21T08:09:38.330Z,43.77
2018-02-21T08:12:05.783Z,45.33
2018-02-21T08:14:33.232Z,44.78
2018-02-21T08:17:00.678Z,45.55
2018-02-21T08:19:28.129Z,46.08
2018-02-21T08:21:55.580Z,45.53
2018-02-21T08:24:23.023Z,44.85
2018-02-21T08:26:50.468Z,44.30
2018-02-21T08:29:17.917Z,44.50
2018-02-21T08:31:45.364Z,42.85
2018-02-21T08:34:12.812Z,44.30
2018-02-21T08:36:40.262Z,46.20
2018-02-21T08:39:07.691Z,44.13
2018-02-21T08:41:35.143Z,45.63
2018-02-21T08:44:02.579Z,44.72
2018-02-21T08:46:30.804Z,46.00
2018-02-21T08:48:58.243Z,46.03
2018-02-21T08:51:25.687Z,46.70
2018-02-21T08:53:53.137Z,44.78
2018-02-21T08:56:20.587Z,46.35
2018-02-21T08:58:48.061Z,45.60
2018-02-21T09:01:15.484Z,46.30
2018-02-21T09:03:42.922Z,44.90
2018-02-21T09:06:10.452Z,46.67
2018-02-21T09:08:37.943Z,45.65
2018-02-21T09:11:05.395Z,46.00
2018-02-21T09:13:33.607Z,43.93
2018-02-21T09:16:01.063Z,44.58
2018-02-21T09:18:29.268Z,45.70
2018-02-21T09:20:57.483Z,47.42
2018-02-21T09:23:24.923Z,45.10
2018-02-21T09:25:52.379Z,48.80
2018-02-21T09:28:19.816Z,45.45
2018-02-21T09:30:48.027Z,43.25
2018-02-21T09:33:15.468Z,44.03
2018-02-21T09:35:42.916Z,45.50
2018-02-21T09:38:10.368Z,46.63
2018-02-21T09:40:37.816Z,41.35
2018-02-21T09:43:05.257Z,44.25
2018-02-21T09:45:32.707Z,42.42
2018-02-21T09:48:00.904Z,45.85
2018-02-21T09:50:28.347Z,44.28
2018-02-21T09:52:55.792Z,42.35
2018-02-21T09:55:23.251Z,45.03
2018-02-21T09:57:50.700Z,44.60
2018-02-21T10:00:18.139Z,45.38
2018-02-21T10:02:45.601Z,43.53
2018-02-21T10:05:13.031Z,42.97
2018-02-21T10:07:40.476Z,43.17
2018-02-21T10:10:07.927Z,43.70
2018-02-21T10:12:36.144Z,44.03
2018-02-21T10:15:03.580Z,46.10
2018-02-21T10:17:31.023Z,43.40
2018-02-21T10:19:58.467Z,43.85
2018-02-21T10:22:25.924Z,44.20
2018-02-21T10:24:54.127Z,45.53
2018-02-21T10:27:22.342Z,41.95
2018-02-21T10:29:50.544Z,42.80
2018-02-21T10:32:18.008Z,42.30
2018-02-21T10:34:45.488Z,42.47
2018-02-21T10:37:13.704Z,41.33
2018-02-21T10:39:41.906Z,42.90
2018-02-21T10:42:09.360Z,41.08
2018-02-21T10:44:36.803Z,42.90
2018-02-21T10:47:04.264Z,44.53
2018-02-21T10:49:31.703Z,44.95
2018-02-21T10:51:59.147Z,42.92
2018-02-21T10:54:26.587Z,41.70
2018-02-21T10:56:54.795Z,43.13
2018-02-21T10:59:22.248Z,44.00
2018-02-21T11:01:50.478Z,45.08
2018-02-21T11:04:17.912Z,44.08
2018-02-21T11:06:45.368Z,43.08
2018-02-21T11:09:12.803Z,42.53
2018-02-21T11:11:41.019Z,42.92
2018-02-21T11:14:08.477Z,45.25
2018-02-21T11:16:36.690Z,42.00
2018-02-21T11:19:04.899Z,43.03
2018-02-21T11:21:32.350Z,41.13
2018-02-21T11:24:00.563Z,43.25
2018-02-21T11:26:27.998Z,42.88
2018-02-21T11:28:55.482Z,42.83
2018-02-21T11:31:22.892Z,42.90
2018-02-21T11:33:51.107Z,40.60
2018-02-21T11:36:19.318Z,40.23
2018-02-21T11:38:46.758Z,42.97
2018-02-21T11:41:14.211Z,42.90
2018-02-21T11:43:41.651Z,42.00
2018-02-21T11:46:09.090Z,43.90
2018-02-21T11:48:36.535Z,44.88
2018-02-21T11:51:03.983Z,44.03
2018-02-21T11:53:31.442Z,43.95
2018-02-21T11:55:58.900Z,42.80
2018-02-21T11:58:26.341Z,43.60
2018-02-21T12:00:53.791Z,44.47
2018-02-21T12:03:22.008Z,43.70
2018-02-21T12:05:50.226Z,41.75
2018-02-21T12:08:17.667Z,43.35
2018-02-21T12:10:45.119Z,42.40
2018-02-21T12:13:12.564Z,44.08
2018-02-21T12:15:40.016Z,43.17
2018-02-21T12:18:08.235Z,42.45
2018-02-21T12:20:35.684Z,43.08
2018-02-21T12:23:03.133Z,40.72
2018-02-21T12:25:30.583Z,44.60
2018-02-21T12:27:58.038Z,43.00
2018-02-21T12:30:25.479Z,43.95
2018-02-21T12:32:56.793Z,42.67
2018-02-21T12:35:25.001Z,43.50
2018-02-21T12:37:53.204Z,41.22
2018-02-21T12:40:27.232Z,40.92
2018-02-21T12:42:55.443Z,44.55
2018-02-21T12:45:22.945Z,42.28
2018-02-21T12:47:50.375Z,41.93
2018-02-21T12:50:18.610Z,41.85
2018-02-21T12:52:46.803Z,43.45
2018-02-21T12:55:14.256Z,44.80
2018-02-21T12:57:41.696Z,44.10
2018-02-21T13:00:09.189Z,43.10
2018-02-21T13:02:37.341Z,41.10
2018-02-21T13:05:05.560Z,40.85
2018-02-21T13:07:33.008Z,40.28
2018-02-21T13:10:01.243Z,41.88
2018-02-21T13:12:28.671Z,41.33
2018-02-21T13:14:56.121Z,40.97
2018-02-21T13:17:23.563Z,39.00
2018-02-21T13:19:51.771Z,41.30
2018-02-21T13:22:19.215Z,39.17
2018-02-21T13:24:46.660Z,41.05
2018-02-21T13:27:14.100Z,40.33
2018-02-21T13:29:42.304Z,41.78
2018-02-21T13:32:10.522Z,42.13
2018-02-21T13:34:37.972Z,39.17
2018-02-21T13:37:05.517Z,41.55
2018-02-21T13:39:33.876Z,39.45
2018-02-21T13:42:01.384Z,41.03
2018-02-21T13:44:28.823Z,42.88
2018-02-21T13:46:56.279Z,40.58
2018-02-21T13:49:23.728Z,38.63
2018-02-21T13:51:51.172Z,42.13
2018-02-21T13:54:18.611Z,42.10
2018-02-21T13:56:46.059Z,38.40
2018-02-21T13:59:13.504Z,39.78
2018-02-21T14:01:40.963Z,38.30
2018-02-21T14:04:08.432Z,38.28
2018-02-21T14:06:35.867Z,39.85
2018-02-21T14:09:04.079Z,37.53
2018-02-21T14:11:31.527Z,39.33
2018-02-21T14:13:58.963Z,35.97
2018-02-21T14:16:26.414Z,36.67
2018-02-21T14:18:54.616Z,39.28
2018-02-21T14:21:22.831Z,38.83
2018-02-21T14:23:50.271Z,38.45
2018-02-21T14:26:17.720Z,38.40
2018-02-21T14:28:45.160Z,38.10
2018-02-21T14:31:12.621Z,37.92
2018-02-21T14:33:40.829Z,37.65
2018-02-21T14:36:09.031Z,37.00
2018-02-21T14:38:37.236Z,39.33
2018-02-21T14:41:05.440Z,39.40
2018-02-21T14:43:32.876Z,39.55
2018-02-21T14:46:00.323Z,38.47
2018-02-21T14:48:27.795Z,40.28
2018-02-21T14:50:55.253Z,39.42
2018-02-21T14:53:22.677Z,40.90
2018-02-21T14:55:50.124Z,39.83
2018-02-21T14:58:17.572Z,41.17
2018-02-21T15:00:45.024Z,41.58
2018-02-21T15:03:12.469Z,41.13
2018-02-21T15:05:40.681Z,39.80
2018-02-21T15:08:08.124Z,40.75
2018-02-21T15:10:35.596Z,38.88
2018-02-21T15:13:03.060Z,41.60
2018-02-21T15:15:30.504Z,39.45
2018-02-21T15:17:59.539Z,40.12
2018-02-21T15:20:26.983Z,41.28
2018-02-21T15:22:54.465Z,40.47
2018-02-21T15:25:21.896Z,40.70
2018-02-21T15:27:49.348Z,40.53
2018-02-21T15:30:17.573Z,39.25
2018-02-21T15:32:45.013Z,38.67
2018-02-21T15:35:12.468Z,40.15
2018-02-21T15:37:39.902Z,40.90
2018-02-21T15:40:08.097Z,40.67
2018-02-21T15:42:36.303Z,41.60
2018-02-21T15:45:03.745Z,42.55
2018-02-21T15:47:31.202Z,41.13
2018-02-21T15:49:58.624Z,41.33
2018-02-21T15:52:26.832Z,40.03
2018-02-21T15:54:55.044Z,41.92
2018-02-21T15:57:22.484Z,41.40
2018-02-21T15:59:49.916Z,39.90
2018-02-21T16:02:17.370Z,40.08
2018-02-21T16:04:45.572Z,40.20
2018-02-21T16:07:13.780Z,39.07
2018-02-21T16:09:41.227Z,39.22
2018-02-21T16:12:08.674Z,39.05
2018-02-21T16:14:36.111Z,42.55
2018-02-21T16:17:04.327Z,37.83
2018-02-21T16:19:31.760Z,37.13
2018-02-21T16:21:59.199Z,37.63
2018-02-21T16:24:26.652Z,40.78
2018-02-21T16:26:54.864Z,42.58
2018-02-21T16:29:22.304Z,39.50
2018-02-21T16:31:49.767Z,38.45
2018-02-21T16:34:17.213Z,36.08
2018-02-21T16:36:44.664Z,37.55
2018-02-21T16:39:12.880Z,42.70
2018-02-21T16:41:41.096Z,41.83
2018-02-21T16:44:08.637Z,43.50
2018-02-21T16:46:36.056Z,60.55
2018-02-21T16:49:03.496Z,41.60
2018-02-21T16:51:30.940Z,38.28
2018-02-21T16:54:04.116Z,38.47
2018-02-21T16:56:32.336Z,39.65
2018-02-21T16:58:59.776Z,38.75
2018-02-21T17:01:27.231Z,39.25
2018-02-21T17:03:54.673Z,38.78
2018-02-21T17:06:22.120Z,38.13
2018-02-21T17:08:49.556Z,35.78
2018-02-21T17:11:17.004Z,38.13
2018-02-21T17:13:44.451Z,38.80
2018-02-21T17:16:11.920Z,38.97
2018-02-21T17:18:39.369Z,39.13
2018-02-21T17:21:06.808Z,42.70
2018-02-21T17:23:35.025Z,44.08
2018-02-21T17:26:02.490Z,40.03
2018-02-21T17:28:29.924Z,42.55
2018-02-21T17:30:57.359Z,36.95
2018-02-21T17:33:25.588Z,36.92
2018-02-21T17:35:53.031Z,37.80
2018-02-21T17:38:21.259Z,36.93
2018-02-21T17:40:54.307Z,37.95
2018-02-21T17:43:21.759Z,36.15
2018-02-21T17:45:49.199Z,38.67
2018-02-21T17:48:17.421Z,35.10
2018-02-21T17:50:44.855Z,38.90
2018-02-21T17:53:12.304Z,38.30
2018-02-21T17:55:39.746Z,39.57
2018-02-21T17:58:07.968Z,35.92
2018-02-21T18:00:35.412Z,39.17
2018-02-21T18:03:02.878Z,44.60
2018-02-21T18:05:30.328Z,44.60
2018-02-21T18:07:57.780Z,43.72
2018-02-21T18:10:25.987Z,44.45
2018-02-21T18:12:53.436Z,41.37
2018-02-21T18:15:20.879Z,38.33
2018-02-21T18:17:48.336Z,41.00
2018-02-21T18:20:15.783Z,41.83
2018-02-21T18:22:43.230Z,41.78
2018-02-21T18:25:10.672Z,43.50
2018-02-21T18:27:38.115Z,40.20
2018-02-21T18:30:05.559Z,38.38
2018-02-21T18:32:33.008Z,43.85
2018-02-21T18:35:00.460Z,49.65
2018-02-21T18:37:27.907Z,44.97
2018-02-21T18:39:55.359Z,44.47
2018-02-21T18:42:22.808Z,43.75
2018-02-21T18:44:50.252Z,45.93
2018-02-21T18:47:17.700Z,45.25
2018-02-21T18:49:45.140Z,47.28
2018-02-21T18:52:12.595Z,44.88
2018-02-21T18:54:40.036Z,42.97
2018-02-21T18:57:07.476Z,43.53
2018-02-21T18:59:34.928Z,42.55
2018-02-21T19:02:02.372Z,41.80
2018-02-21T19:04:30.599Z,41.58
2018-02-21T19:06:58.054Z,40.20
2018-02-21T19:09:26.264Z,39.13
2018-02-21T19:11:53.716Z,36.97
2018-02-21T19:14:21.975Z,35.30
2018-02-21T19:16:50.139Z,37.00
2018-02-21T19:19:17.599Z,34.70
2018-02-21T19:21:45.811Z,34.17
2018-02-21T19:24:14.023Z,36.80
2018-02-21T19:26:41.463Z,37.15
2018-02-21T19:29:08.911Z,31.45
2018-02-21T19:31:36.352Z,30.87
2018-02-21T19:34:04.579Z,29.87
2018-02-21T19:36:32.018Z,29.98
2018-02-21T19:39:00.231Z,29.58
2018-02-21T19:41:27.679Z,30.52
2018-02-21T19:43:55.131Z,31.15
2018-02-21T19:46:22.584Z,32.35
2018-02-21T19:48:50.032Z,30.33
2018-02-21T19:51:17.483Z,30.25
2018-02-21T19:53:44.927Z,28.60
2018-02-21T19:56:12.368Z,28.40
2018-02-21T19:58:39.863Z,29.15
2018-02-21T20:01:08.075Z,29.30
2018-02-21T20:03:35.527Z,28.60
2018-02-21T20:06:02.973Z,29.60
2018-02-21T20:08:30.415Z,29.70
2018-02-21T20:10:57.864Z,29.48
2018-02-21T20:13:25.312Z,30.40
2018-02-21T20:15:52.763Z,29.87
2018-02-21T20:18:20.218Z,28.55
2018-02-21T20:20:47.676Z,27.17
2018-02-21T20:23:15.124Z,27.37
2018-02-21T20:25:42.559Z,27.97
2018-02-21T20:28:10.012Z,28.42
2018-02-21T20:30:37.451Z,28.83
2018-02-21T20:33:04.907Z,25.75
2018-02-21T20:35:33.115Z,25.67
2018-02-21T20:38:01.336Z,26.20
2018-02-21T20:40:28.776Z,26.05
2018-02-21T20:42:56.224Z,26.27
2018-02-21T20:45:23.668Z,28.00
2018-02-21T20:47:51.140Z,27.58
2018-02-21T20:50:19.355Z,26.83
2018-02-21T20:52:46.783Z,24.80
2018-02-21T20:55:14.235Z,24.40
2018-02-21T20:57:41.679Z,23.97
2018-02-21T21:00:09.896Z,24.02
2018-02-21T21:02:37.339Z,24.05
2018-02-21T21:05:04.787Z,24.77
2018-02-21T21:07:32.234Z,24.17
2018-02-21T21:09:59.681Z,22.30
2018-02-21T21:12:27.122Z,24.10
2018-02-21T21:14:54.576Z,23.30
2018-02-21T21:17:22.015Z,22.17
2018-02-21T21:19:49.463Z,22.25
2018-02-21T21:22:16.915Z,22.05
2018-02-21T21:24:44.365Z,23.30
2018-02-21T21:27:11.811Z,22.62
2018-02-21T21:29:39.271Z,21.60
2018-02-21T21:32:06.713Z,22.15
2018-02-21T21:34:34.161Z,22.15
2018-02-21T21:37:01.596Z,21.57
2018-02-21T21:39:29.043Z,22.00
2018-02-21T21:41:56.498Z,21.45
2018-02-21T21:44:23.955Z,21.12
2018-02-21T21:46:51.397Z,23.50
2018-02-21T21:49:18.859Z,21.70
2018-02-21T21:51:46.301Z,22.85
2018-02-21T21:54:13.747Z,21.08
2018-02-21T21:56:41.957Z,21.45
2018-02-21T21:59:10.167Z,17.73
2018-02-21T22:01:37.612Z,17.00
2018-02-21T22:04:05.056Z,16.90
2018-02-21T22:06:32.496Z,16.40
2018-02-21T22:09:00.712Z,16.37
2018-02-21T22:11:28.155Z,15.93
2018-02-21T22:13:55.599Z,15.83
2018-02-21T22:16:23.041Z,15.97
2018-02-21T22:18:50.487Z,14.43
2018-02-21T22:21:17.923Z,15.10
2018-02-21T22:23:45.371Z,16.70
2018-02-21T22:26:13.575Z,15.83
2018-02-21T22:28:41.823Z,15.40
2018-02-21T22:31:09.263Z,16.57
2018-02-21T22:33:36.711Z,15.93
2018-02-21T22:36:04.152Z,15.87
2018-02-21T22:38:31.592Z,15.37
2018-02-21T22:40:59.808Z,13.33
2018-02-21T22:43:27.245Z,14.17
2018-02-21T22:45:54.718Z,14.27
2018-02-21T22:48:22.160Z,15.60
2018-02-21T22:50:49.604Z,16.33
2018-02-21T22:53:17.812Z,14.30
2018-02-21T22:55:46.019Z,16.23
2018-02-21T22:58:14.227Z,15.80
2018-02-21T23:00:41.673Z,14.80
2018-02-21T23:03:09.111Z,14.77
2018-02-21T23:05:36.556Z,16.00
2018-02-21T23:08:04.759Z,14.70
2018-02-21T23:10:32.208Z,14.60
2018-02-21T23:12:59.648Z,13.30
2018-02-21T23:15:27.096Z,14.77
2018-02-21T23:17:55.299Z,13.53
2018-02-21T23:20:23.567Z,15.37
2018-02-21T23:22:51.007Z,12.93
2018-02-21T23:25:18.457Z,15.13
2018-02-21T23:27:46.660Z,12.97
2018-02-21T23:30:14.108Z,14.00
2018-02-21T23:32:41.548Z,13.20
2018-02-21T23:35:08.992Z,11.90
2018-02-21T23:37:37.196Z,13.27
2018-02-21T23:40:05.415Z,13.90
2018-02-21T23:42:32.851Z,13.40
2018-02-21T23:45:00.359Z,13.23
2018-02-21T23:47:28.560Z,13.90
2018-02-21T23:49:56.011Z,14.07
2018-02-21T23:52:23.448Z,12.63
2018-02-21T23:54:50.897Z,16.80
2018-02-21T23:57:19.103Z,18.50
2018-02-21T23:59:46.548Z,17.98
